Time;durP1;ratioP1;P1;durP2;ratioP2;P2;SDS_P1;SDS_P2;PMS_P1;PMS_P2;Temp;Humidity;BMP_temperature;BMP_pressure;BME280_temperature;BME280_humidity;BME280_pressure;Samples;Min_cycle;Max_cycle;Signal;HPM_P1;HPM_P2
2022/05/01 00:00:15;;;;;;;0.00;0.00;;;12.50;91.20;;;11.10;65.61;100444.47;10377731;27;97786;-81
2022/05/01 00:05:19;;;;;;;0.00;0.00;;;12.50;91.50;;;11.07;65.75;100450.09;10400455;27;96580;-82
2022/05/01 00:10:21;;;;;;;0.00;0.00;;;12.50;91.40;;;11.04;65.60;100454.94;10441313;27;96513;-82
2022/05/01 00:15:25;;;;;;;0.13;0.13;;;12.50;91.20;;;11.00;65.90;100465.06;10397805;27;97541;-81
2022/05/01 00:20:28;;;;;;;0.10;0.10;;;12.50;92.00;;;10.97;65.74;100458.25;10402284;27;98445;-82
2022/05/01 00:25:32;;;;;;;0.00;0.00;;;12.50;91.50;;;10.94;66.31;100457.75;10408126;27;97004;-81
2022/05/01 00:30:36;;;;;;;0.13;0.13;;;12.50;92.80;;;10.90;67.29;100459.88;10381261;27;98790;-82
2022/05/01 00:41:00;;;;;;;0.00;0.00;;;12.40;93.00;;;10.82;67.99;100457.22;10392901;27;96651;-82
2022/05/01 00:46:05;;;;;;;0.00;0.00;;;12.40;94.30;;;10.80;67.17;100464.53;10391119;27;97558;-82
2022/05/01 00:51:09;;;;;;;0.20;0.20;;;12.30;93.40;;;10.77;67.36;100464.84;10404436;27;96540;-82
2022/05/01 00:56:13;;;;;;;0.00;0.00;;;12.30;93.30;;;10.77;67.78;100464.00;10442185;27;98502;-82
2022/05/01 01:01:17;;;;;;;0.13;0.13;;;12.30;94.20;;;10.74;68.11;100461.69;10407876;27;98774;-82
2022/05/01 01:06:21;;;;;;;0.00;0.00;;;12.20;95.50;;;10.67;68.98;100454.34;10383506;27;97429;-81
2022/05/01 01:11:24;;;;;;;0.00;0.00;;;12.20;96.20;;;10.65;69.30;100455.50;10425518;27;96581;-82
2022/05/01 01:16:27;;;;;;;0.10;0.10;;;12.10;96.30;;;10.64;69.50;100459.16;10412999;27;97517;-81
2022/05/01 01:21:30;;;;;;;0.00;0.00;;;12.10;95.60;;;10.67;69.39;100456.16;10406553;27;96511;-81
2022/05/01 01:26:34;;;;;;;0.00;0.00;;;12.10;96.80;;;10.65;70.17;100452.84;10398668;27;96449;-82
2022/05/01 01:31:41;;;;;;;0.00;0.00;;;12.10;98.00;;;10.65;69.86;100452.84;10406786;27;97237;-81
2022/05/01 01:36:47;;;;;;;0.10;0.10;;;12.10;98.90;;;10.63;69.86;100452.19;10412155;27;96758;-82
2022/05/01 01:41:54;;;;;;;0.00;0.00;;;12.10;98.10;;;10.63;69.76;100453.03;10412746;27;96683;-81
2022/05/01 01:46:57;;;;;;;0.00;0.00;;;12.10;97.30;;;10.63;70.01;100453.03;10423738;27;98677;-81
2022/05/01 01:52:00;;;;;;;0.00;0.00;;;12.10;98.60;;;10.64;70.35;100454.69;10427027;27;96496;-82
2022/05/01 01:57:05;;;;;;;0.00;0.00;;;12.10;97.50;;;10.66;70.54;100454.50;10396815;27;96522;-82
2022/05/01 02:02:09;;;;;;;0.00;0.00;;;12.10;98.30;;;10.66;70.63;100451.84;10396708;27;98216;-81
2022/05/01 02:07:12;;;;;;;0.00;0.00;;;12.20;98.20;;;10.66;70.55;100454.50;10395136;28;96629;-81
2022/05/01 02:12:15;;;;;;;0.00;0.00;;;12.10;98.00;;;10.64;70.47;100453.84;10389981;27;97340;-81
2022/05/01 02:17:19;;;;;;;0.00;0.00;;;12.20;98.00;;;10.62;70.89;100455.84;10409317;27;96687;-81
2022/05/01 02:22:22;;;;;;;0.00;0.00;;;12.10;99.80;;;10.57;70.61;100451.00;10397953;27;96657;-82
2022/05/01 02:27:25;;;;;;;0.00;0.00;;;12.10;99.90;;;10.55;70.08;100449.50;10413339;27;96548;-82
2022/05/01 02:32:29;;;;;;;0.00;0.00;;;12.00;98.80;;;10.53;69.84;100454.16;10407975;27;98545;-82
2022/05/01 02:37:32;;;;;;;0.00;0.00;;;12.00;98.60;;;10.53;69.57;100446.19;10417017;27;96624;-81
2022/05/01 02:42:35;;;;;;;0.00;0.00;;;12.00;98.50;;;10.51;70.02;100449.00;10368243;28;96725;-82
2022/05/01 02:47:38;;;;;;;0.00;0.00;;;12.00;99.00;;;10.49;69.99;100450.13;10378140;27;96937;-82
2022/05/01 02:52:41;;;;;;;0.00;0.00;;;12.00;98.80;;;10.44;70.59;100448.81;10377154;27;97733;-81
2022/05/01 02:57:44;;;;;;;0.00;0.00;;;12.00;99.70;;;10.42;71.03;100448.13;10407906;27;96817;-81
2022/05/01 03:02:48;;;;;;;0.10;0.10;;;11.90;99.90;;;10.39;71.51;100445.81;10411693;27;96790;-81
2022/05/01 03:07:55;;;;;;;0.00;0.00;;;11.90;99.90;;;10.35;72.32;100436.47;10389711;27;97680;-81
2022/05/01 03:12:58;;;;;;;0.00;0.00;;;11.90;99.90;;;10.33;72.77;100441.13;10407177;27;96587;-81
2022/05/01 03:23:23;;;;;;;0.00;0.00;;;11.80;99.90;;;10.31;72.94;100445.75;10392140;27;98776;-81
2022/05/01 03:28:27;;;;;;;0.00;0.00;;;11.80;99.90;;;10.31;73.05;100458.22;10400278;27;96646;-81
2022/05/01 03:33:31;;;;;;;0.00;0.00;;;11.80;99.90;;;10.30;73.24;100462.69;10436351;27;98108;-81
2022/05/01 03:38:36;;;;;;;0.00;0.00;;;11.80;99.90;;;10.31;72.73;100463.53;10419664;27;96515;-81
2022/05/01 03:43:39;;;;;;;0.00;0.00;;;11.80;99.90;;;10.31;72.61;100461.69;10389165;27;96673;-81
2022/05/01 03:48:42;;;;;;;0.00;0.00;;;11.80;99.90;;;10.29;72.89;100474.31;10402803;27;98498;-81
2022/05/01 03:53:45;;;;;;;0.00;0.00;;;11.80;99.90;;;10.32;72.73;100471.34;10375387;28;96651;-82
2022/05/01 03:58:48;;;;;;;0.00;0.00;;;11.80;99.90;;;10.29;73.26;100471.66;10375215;27;96660;-83
2022/05/01 04:03:52;;;;;;;0.00;0.00;;;11.80;99.90;;;10.30;73.20;100473.31;10373955;27;96853;-81
2022/05/01 04:08:57;;;;;;;0.13;0.03;;;11.80;99.90;;;10.30;72.98;100470.66;10364800;28;96670;-82
2022/05/01 04:14:01;;;;;;;0.00;0.00;;;11.80;99.90;;;10.32;73.08;100474.00;10399121;27;96797;-82
2022/05/01 04:19:04;;;;;;;0.00;0.00;;;11.80;99.90;;;10.32;73.16;100481.97;10411123;27;97296;-82
2022/05/01 04:24:07;;;;;;;0.00;0.00;;;11.90;99.90;;;10.34;73.29;100487.13;10408470;27;96518;-82
2022/05/01 04:34:33;;;;;;;0.00;0.00;;;11.80;99.90;;;10.38;73.97;100499.94;10413412;27;96665;-82
2022/05/01 04:39:35;;;;;;;0.00;0.00;;;11.90;99.90;;;10.43;74.22;100497.63;10401164;27;96904;-81
2022/05/01 04:44:38;;;;;;;0.10;0.10;;;11.90;99.90;;;10.51;74.62;100501.31;10374179;27;96734;-82
2022/05/01 04:49:41;;;;;;;0.00;0.00;;;12.00;99.90;;;10.56;74.58;100501.66;10393241;28;97854;-82
2022/05/01 04:54:44;;;;;;;0.00;0.00;;;12.00;99.90;;;10.62;74.21;100501.03;10380727;28;96626;-82
2022/05/01 04:59:48;;;;;;;0.00;0.00;;;12.10;99.90;;;10.68;73.80;100505.69;10385259;27;96896;-82
2022/05/01 05:04:51;;;;;;;0.33;0.33;;;12.10;99.90;;;10.68;73.34;100503.88;10412617;27;97869;-81
2022/05/01 05:09:54;;;;;;;0.13;0.13;;;12.20;99.90;;;10.76;73.59;100508.38;10377871;27;98394;-82
2022/05/01 05:14:59;;;;;;;0.00;0.00;;;12.20;99.90;;;10.85;73.84;100510.03;10396448;27;96560;-82
2022/05/01 05:20:04;;;;;;;0.00;0.00;;;12.20;99.90;;;11.01;74.12;100514.59;10384176;27;97769;-82
2022/05/01 05:25:13;;;;;;;0.00;0.00;;;12.30;99.90;;;11.23;73.88;100519.28;10421946;27;96755;-81
2022/05/01 05:30:16;;;;;;;0.43;0.40;;;12.50;99.90;;;11.52;72.82;100520.66;10412937;27;97365;-82
2022/05/01 05:35:20;;;;;;;0.77;0.63;;;12.70;99.90;;;11.77;70.64;100516.97;10382296;27;96762;-81
2022/05/01 05:40:22;;;;;;;0.00;0.00;;;13.00;99.90;;;12.00;68.62;100524.31;10378704;28;96494;-82
2022/05/01 05:45:25;;;;;;;1.43;0.43;;;13.20;99.80;;;12.24;66.99;100518.09;10382022;27;96640;-82
2022/05/01 05:50:28;;;;;;;0.00;0.00;;;13.40;98.70;;;12.48;64.63;100531.34;10436977;27;96490;-82
2022/05/01 05:55:33;;;;;;;0.00;0.00;;;13.70;96.20;;;12.70;62.70;100526.25;10400817;27;98294;-83
2022/05/01 06:00:37;;;;;;;0.00;0.00;;;13.90;95.70;;;12.95;63.13;100530.44;10385245;27;97339;-81
2022/05/01 06:05:40;;;;;;;0.00;0.00;;;14.20;95.80;;;13.15;59.17;100532.69;10398125;27;97103;-82
2022/05/01 06:10:43;;;;;;;0.13;0.13;;;14.40;93.20;;;13.31;57.53;100537.94;10397068;27;97862;-82
2022/05/01 06:15:46;;;;;;;0.00;0.00;;;14.60;91.70;;;13.49;57.38;100537.63;10394214;27;96962;-83
2022/05/01 06:20:50;;;;;;;0.00;0.00;;;14.80;90.80;;;13.71;57.83;100535.97;10409427;27;97466;-83
2022/05/01 06:25:56;;;;;;;0.00;0.00;;;15.00;90.50;;;13.90;56.77;100533.59;10406713;27;98956;-83
2022/05/01 06:31:02;;;;;;;0.10;0.10;;;15.20;89.90;;;13.99;54.48;100531.72;10386229;27;96702;-83
2022/05/01 06:36:05;;;;;;;0.05;0.05;;;15.30;84.60;;;14.16;54.21;100535.06;10416611;27;97035;-83
2022/05/01 06:41:09;;;;;;;0.00;0.00;;;15.40;79.10;;;14.35;55.05;100531.00;10388719;27;99040;-82
2022/05/01 06:46:13;;;;;;;0.00;0.00;;;15.60;83.40;;;14.58;53.93;100528.28;10403578;27;96706;-82
2022/05/01 06:51:16;;;;;;;0.00;0.00;;;15.80;82.10;;;14.83;53.39;100528.78;10392692;27;99133;-82
2022/05/01 06:56:19;;;;;;;0.00;0.00;;;16.10;81.10;;;15.04;51.86;100525.31;10407818;27;96514;-82
2022/05/01 07:01:22;;;;;;;0.00;0.00;;;16.30;77.70;;;15.21;50.57;100527.56;10408971;27;98548;-82
2022/05/01 07:06:28;;;;;;;0.20;0.20;;;16.50;76.20;;;15.26;49.65;100524.31;10399246;27;98633;-82
2022/05/01 07:11:31;;;;;;;0.00;0.00;;;16.50;73.90;;;15.29;49.91;100523.91;10403506;27;97163;-82
2022/05/01 07:16:34;;;;;;;0.05;0.03;;;16.60;73.60;;;15.41;50.61;100525.09;10396263;27;96818;-82
2022/05/01 07:21:37;;;;;;;0.30;0.28;;;16.70;73.00;;;15.53;49.85;100522.72;10395413;27;96681;-82
2022/05/01 07:26:40;;;;;;;0.10;0.10;;;16.70;69.10;;;15.60;49.13;100520.94;10409087;27;98220;-82
2022/05/01 07:31:43;;;;;;;0.00;0.00;;;16.80;69.00;;;15.74;49.82;100509.34;10405301;27;97382;-81
2022/05/01 07:36:47;;;;;;;0.00;0.00;;;16.90;72.00;;;15.93;50.08;100515.03;10390343;27;96681;-81
2022/05/01 07:41:50;;;;;;;0.40;0.40;;;17.10;72.10;;;16.04;49.00;100507.28;10382128;27;98762;-81
2022/05/01 07:46:53;;;;;;;0.00;0.00;;;17.30;69.10;;;16.13;49.39;100507.13;10412252;27;97511;-80
2022/05/01 07:51:56;;;;;;;0.25;0.25;;;17.40;71.10;;;16.35;49.21;100495.31;10416323;27;96969;-81
2022/05/01 07:56:59;;;;;;;0.20;0.15;;;17.60;71.00;;;16.68;48.96;100491.97;10381169;28;96616;-81
2022/05/01 08:02:03;;;;;;;0.10;0.10;;;17.90;69.40;;;16.96;48.49;100492.69;10400004;27;96705;-81
2022/05/01 08:07:08;;;;;;;0.00;0.00;;;18.10;69.60;;;17.27;48.79;100489.47;10416029;27;96957;-80
2022/05/01 08:12:11;;;;;;;1.02;0.65;;;18.40;69.30;;;17.51;48.77;100489.88;10406024;27;97096;-80
2022/05/01 08:17:20;;;;;;;0.00;0.00;;;18.70;69.40;;;17.74;48.00;100479.56;10397246;27;96617;-81
2022/05/01 08:22:23;;;;;;;0.10;0.10;;;18.90;68.70;;;17.95;48.07;100480.41;10411074;27;96664;-81
2022/05/01 08:27:26;;;;;;;0.00;0.00;;;19.20;68.80;;;18.27;46.95;100465.22;10402437;27;97462;-80
2022/05/01 08:32:29;;;;;;;0.15;0.13;;;19.40;65.30;;;18.50;45.96;100454.78;10383628;27;97095;-81
2022/05/01 08:37:32;;;;;;;0.00;0.00;;;19.70;65.90;;;18.45;46.15;100458.13;10406879;27;96608;-81
2022/05/01 08:42:37;;;;;;;0.00;0.00;;;19.60;65.30;;;18.71;46.01;100459.06;10391062;27;96745;-81
2022/05/01 08:48:01;;;;;;;0.00;0.00;;;19.90;65.20;;;18.99;44.12;100443.38;10397796;27;97065;-81
2022/05/01 08:53:06;;;;;;;0.25;0.22;;;20.20;62.00;;;19.41;44.39;100445.56;10407029;27;96627;-81
2022/05/01 08:58:14;;;;;;;0.10;0.10;;;20.50;63.20;;;19.68;42.50;100438.94;10374610;27;97068;-80
2022/05/01 09:03:18;;;;;;;0.00;0.00;;;20.80;61.00;;;19.85;40.66;100431.09;10387295;27;96672;-81
2022/05/01 09:08:23;;;;;;;0.00;0.00;;;21.00;59.20;;;20.02;42.68;100432.16;10408166;27;97538;-80
2022/05/01 09:13:26;;;;;;;0.10;0.10;;;21.20;59.80;;;20.10;41.63;100420.25;10406684;27;98609;-80
2022/05/01 09:18:46;;;;;;;0.10;0.10;;;21.30;59.00;;;20.07;40.28;100414.47;10411808;27;97147;-80
2022/05/01 09:23:50;;;;;;;0.23;0.23;;;21.30;57.70;;;20.29;40.57;100412.97;10436853;27;96780;-81
2022/05/01 09:28:54;;;;;;;0.13;0.13;;;21.50;57.50;;;20.08;39.10;100408.84;10407815;27;96813;-83
2022/05/01 09:34:25;;;;;;;0.50;0.25;;;21.40;55.90;;;20.00;39.65;100401.88;10403319;27;96575;-79
2022/05/01 09:39:32;;;;;;;2.28;0.70;;;21.30;56.00;;;20.14;40.68;100407.13;10378956;27;98489;-79
2022/05/01 09:45:09;;;;;;;0.00;0.00;;;21.40;56.70;;;20.40;39.93;100406.00;10396396;27;97140;-81
2022/05/01 09:50:14;;;;;;;0.17;0.17;;;21.60;56.10;;;20.56;40.33;100406.19;10410227;27;96750;-81
2022/05/01 09:55:17;;;;;;;0.20;0.20;;;21.70;56.40;;;20.77;37.51;100395.97;10396391;27;98466;-79
2022/05/01 10:00:46;;;;;;;0.10;0.10;;;21.90;53.90;;;20.89;37.10;100393.28;10403739;27;97251;-79
2022/05/01 10:05:51;;;;;;;0.03;0.03;;;22.10;51.90;;;21.04;37.40;100386.38;10375667;27;99214;-81
2022/05/01 10:10:59;;;;;;;0.05;0.05;;;22.20;52.30;;;21.45;37.95;100382.00;10383627;27;96826;-78
2022/05/01 10:16:09;;;;;;;0.00;0.00;;;22.40;53.70;;;21.81;33.73;100370.09;10395119;27;96835;-80
2022/05/01 10:21:21;;;;;;;0.00;0.00;;;22.80;49.90;;;22.17;33.88;100351.94;10399145;27;96861;-81
2022/05/01 10:26:34;;;;;;;0.00;0.00;;;23.00;48.40;;;22.58;32.91;100350.84;10392453;27;96603;-80
2022/05/01 10:32:22;;;;;;;0.00;0.00;;;23.40;49.60;;;22.61;33.16;100347.66;10388510;27;97632;-81
2022/05/01 10:38:23;;;;;;;0.00;0.00;;;23.70;48.50;;;22.24;33.49;100335.56;10408183;27;99016;-81
2022/05/01 10:43:29;;;;;;;0.00;0.00;;;23.50;48.40;;;22.24;33.04;100330.97;10406099;27;97619;-81
2022/05/01 10:48:41;;;;;;;0.00;0.00;;;23.50;48.00;;;22.41;33.59;100322.88;10412753;27;98322;-81
2022/05/01 10:54:09;;;;;;;0.00;0.00;;;23.60;48.60;;;22.73;33.07;100330.47;10407292;27;98892;-80
2022/05/01 10:59:30;;;;;;;0.10;0.10;;;23.80;47.10;;;22.90;33.90;100334.06;10401669;27;99000;-81
2022/05/01 11:04:42;;;;;;;0.00;0.00;;;24.10;48.20;;;23.00;32.65;100323.41;10403222;27;97333;-80
2022/05/01 11:09:48;;;;;;;0.00;0.00;;;24.20;46.80;;;23.00;32.40;100315.28;10389781;27;98292;-80
2022/05/01 11:15:08;;;;;;;0.00;0.00;;;24.30;46.70;;;23.08;32.58;100309.44;10384819;27;96726;-81
2022/05/01 11:20:14;;;;;;;0.15;0.15;;;24.30;46.90;;;23.10;31.84;100298.38;10412764;27;97507;-81
2022/05/01 11:25:40;;;;;;;0.00;0.00;;;24.30;45.80;;;22.70;31.30;100302.84;10389600;27;97398;-81
2022/05/01 11:30:43;;;;;;;0.00;0.00;;;24.10;45.80;;;22.10;31.80;100292.53;10385228;27;98441;-81
2022/05/01 11:35:58;;;;;;;3.60;0.43;;;23.70;45.30;;;21.69;32.91;100298.16;10392491;27;96639;-80
2022/05/01 11:41:03;;;;;;;0.17;0.17;;;23.20;46.10;;;21.52;31.53;100290.78;10387538;27;96906;-81
2022/05/01 11:46:17;;;;;;;0.15;0.15;;;23.00;45.50;;;21.30;32.21;100293.28;10397442;27;97964;-81
2022/05/01 11:51:21;;;;;;;0.00;0.00;;;22.80;45.90;;;21.25;31.36;100295.84;10385531;27;96687;-80
2022/05/01 12:07:12;;;;;;;0.00;0.00;;;22.70;46.20;;;22.09;30.87;100274.66;10384910;27;98907;-80
2022/05/01 12:12:19;;;;;;;0.32;0.25;;;23.20;44.30;;;22.52;31.05;100262.44;10385356;27;97395;-80
2022/05/01 12:17:26;;;;;;;0.08;0.08;;;23.50;45.60;;;23.05;27.72;100253.03;10391849;27;97828;-81
2022/05/01 12:22:37;;;;;;;0.00;0.00;;;24.10;42.40;;;23.16;28.41;100254.00;10394679;27;98099;-81
2022/05/01 12:27:40;;;;;;;0.00;0.00;;;24.20;42.50;;;23.30;28.54;100247.13;10383050;27;98518;-81
2022/05/01 12:32:54;;;;;;;0.17;0.17;;;24.40;42.80;;;23.26;28.34;100239.75;10379111;27;98274;-81
2022/05/01 12:37:59;;;;;;;0.00;0.00;;;24.40;42.30;;;22.75;28.49;100238.97;10377343;27;98700;-81
2022/05/01 12:48:25;;;;;;;0.25;0.25;;;24.10;42.40;;;22.16;28.44;100223.91;10395327;27;98646;-80
2022/05/01 12:53:30;;;;;;;0.10;0.10;;;23.70;41.30;;;22.11;29.24;100225.72;10424713;27;97112;-80
2022/05/01 12:58:34;;;;;;;0.15;0.08;;;23.50;42.50;;;22.07;28.15;100211.81;10409255;27;98621;-80
2022/05/01 13:03:39;;;;;;;0.00;0.00;;;23.50;41.60;;;22.18;29.47;100207.44;10406434;27;96742;-80
2022/05/01 13:08:52;;;;;;;0.00;0.00;;;23.60;42.50;;;21.93;29.13;100210.47;10426304;27;98178;-80
2022/05/01 13:14:00;;;;;;;0.00;0.00;;;23.40;42.10;;;21.87;29.87;100206.03;10389760;27;97493;-80
2022/05/01 13:19:14;;;;;;;0.43;0.25;;;23.20;43.00;;;21.66;29.65;100193.19;10391422;27;98219;-80
2022/05/01 13:24:33;;;;;;;0.05;0.05;;;23.10;42.60;;;21.53;29.05;100189.69;10392403;27;98593;-80
2022/05/01 13:29:39;;;;;;;0.80;0.60;;;23.00;42.00;;;21.57;29.94;100185.44;10390890;27;98330;-80
2022/05/01 13:34:42;;;;;;;0.10;0.10;;;23.00;42.90;;;21.73;29.55;100177.63;10387212;27;98746;-80
2022/05/01 13:45:08;;;;;;;3.83;0.20;;;23.80;42.70;;;23.73;28.75;100159.53;10371869;27;99668;-80
2022/05/01 13:50:11;;;;;;;0.00;0.00;;;25.10;41.70;;;23.95;26.21;100155.97;10369127;27;98307;-80
2022/05/01 13:55:15;;;;;;;0.00;0.00;;;25.70;39.80;;;24.20;26.52;100153.47;10387616;28;98277;-80
2022/05/01 14:00:19;;;;;;;0.10;0.08;;;25.90;39.70;;;25.03;26.15;100145.63;10382651;27;97635;-80
2022/05/01 14:05:22;;;;;;;0.25;0.10;;;26.70;40.00;;;25.83;25.97;100154.38;10381965;27;98468;-80
2022/05/01 14:10:25;;;;;;;0.10;0.10;;;27.50;39.80;;;26.30;24.84;100136.97;10377993;27;97118;-81
2022/05/01 14:15:28;;;;;;;0.00;0.00;;;28.10;38.30;;;26.85;24.10;100143.47;10382660;27;96635;-81
2022/05/01 14:20:32;;;;;;;0.45;0.32;;;28.60;37.60;;;27.04;23.90;100134.66;10382910;27;98811;-81
2022/05/01 14:25:35;;;;;;;1.40;0.95;;;28.80;37.50;;;27.70;23.73;100123.47;10384902;28;96614;-80
2022/05/01 14:31:07;;;;;;;0.08;0.08;;;29.30;37.10;;;28.26;23.25;100128.53;10369350;27;98242;-80
2022/05/01 14:36:19;;;;;;;0.00;0.00;;;29.80;37.30;;;28.28;22.68;100126.31;10383622;27;97631;-80
2022/05/01 14:41:48;;;;;;;0.30;0.30;;;29.90;36.70;;;28.14;23.35;100122.63;10373645;27;98235;-81
2022/05/01 14:46:57;;;;;;;0.00;0.00;;;29.80;37.20;;;28.15;23.61;100129.72;10376497;27;98687;-80
2022/05/01 14:52:04;;;;;;;0.00;0.00;;;29.70;37.20;;;28.10;22.98;100122.38;10377341;27;98278;-80
2022/05/01 14:57:12;;;;;;;0.10;0.10;;;29.60;36.10;;;27.93;23.57;100117.31;10404068;28;98120;-80
2022/05/01 15:07:52;;;;;;;0.00;0.00;;;29.30;36.20;;;26.54;23.27;100110.00;10388310;28;98811;-80
2022/05/01 15:12:56;;;;;;;1.93;0.73;;;28.40;36.00;;;26.87;23.71;100108.56;10394595;27;98612;-80
2022/05/01 15:18:01;;;;;;;0.00;0.00;;;28.40;36.90;;;27.10;22.28;100103.59;10389330;27;98817;-80
2022/05/01 15:23:42;;;;;;;0.00;0.00;;;28.60;36.20;;;26.66;22.93;100096.91;10405819;27;96919;-76
2022/05/01 15:28:46;;;;;;;0.10;0.10;;;28.40;35.80;;;26.28;22.61;100094.78;10361798;27;98324;-76
2022/05/01 15:33:54;;;;;;;0.00;0.00;;;28.00;35.90;;;25.16;23.13;100105.47;10391587;27;98708;-80
2022/05/01 15:39:04;;;;;;;0.00;0.00;;;27.20;35.40;;;24.53;24.70;100102.69;10405722;27;97353;-80
2022/05/01 15:44:20;;;;;;;0.00;0.00;;;26.50;36.70;;;24.28;24.76;100101.38;10394187;27;96628;-80
2022/05/01 15:54:49;;;;;;;0.00;0.00;;;25.70;37.90;;;24.09;26.80;100092.03;10415826;27;96800;-80
2022/05/01 15:59:52;;;;;;;0.20;0.10;;;25.50;38.50;;;24.32;25.90;100092.75;10362469;28;98494;-80
2022/05/01 16:04:55;;;;;;;0.63;0.40;;;25.70;38.60;;;24.66;25.18;100082.41;10400512;27;97062;-80
2022/05/01 16:10:23;;;;;;;0.10;0.10;;;25.90;38.00;;;24.37;25.28;100087.38;10396431;27;96651;-81
2022/05/01 16:15:44;;;;;;;0.00;0.00;;;25.70;37.80;;;24.08;24.34;100092.28;10391154;27;99149;-79
2022/05/01 16:21:11;;;;;;;0.10;0.10;;;25.60;37.00;;;23.68;25.73;100080.00;10373161;27;98571;-80
2022/05/01 16:26:14;;;;;;;3.20;0.25;;;25.20;38.00;;;23.39;25.48;100087.53;10381436;27;99134;-80
2022/05/01 16:31:27;;;;;;;0.00;0.00;;;25.00;37.40;;;23.15;26.44;100082.41;10393993;27;98929;-81
2022/05/01 16:36:36;;;;;;;0.00;0.00;;;24.70;38.80;;;22.99;26.44;100082.47;10391507;27;96810;-81
2022/05/01 16:41:40;;;;;;;0.00;0.00;;;24.50;38.60;;;22.77;27.05;100082.44;10402953;27;98354;-80
2022/05/01 16:46:48;;;;;;;0.08;0.08;;;24.30;38.70;;;22.22;27.67;100083.28;10394337;27;96965;-80
2022/05/01 16:51:52;;;;;;;0.00;0.00;;;23.90;38.90;;;21.80;28.43;100089.03;10383324;27;98021;-81
2022/05/01 16:56:57;;;;;;;0.00;0.00;;;23.50;39.50;;;21.43;28.84;100091.34;10377333;27;98107;-81
2022/05/01 17:02:26;;;;;;;0.00;0.00;;;23.10;40.00;;;21.03;29.49;100098.38;10374855;27;98637;-80
2022/05/01 17:08:12;;;;;;;0.00;0.00;;;22.70;40.40;;;20.72;30.00;100102.31;10388434;27;96714;-80
2022/05/01 17:13:43;;;;;;;0.00;0.00;;;22.40;41.30;;;20.46;30.99;100110.91;10379479;27;98490;-80
2022/05/01 17:18:56;;;;;;;0.00;0.00;;;22.10;42.20;;;20.14;31.92;100121.16;10391295;27;96744;-80
2022/05/01 17:24:05;;;;;;;0.00;0.00;;;21.70;42.30;;;19.85;32.69;100121.00;10360140;27;98678;-80
2022/05/01 17:29:12;;;;;;;0.10;0.10;;;21.40;44.20;;;19.57;34.49;100123.44;10419822;27;97818;-80
2022/05/01 17:34:19;;;;;;;0.00;0.00;;;21.10;46.30;;;19.25;35.52;100123.63;10411031;27;98931;-80
2022/05/01 17:39:23;;;;;;;0.00;0.00;;;20.80;48.00;;;18.84;37.17;100138.63;10412165;27;96555;-80
2022/05/01 17:44:26;;;;;;;0.00;0.00;;;20.40;49.30;;;18.45;38.14;100135.22;10386373;27;97430;-80
2022/05/01 17:49:32;;;;;;;0.00;0.00;;;20.00;49.80;;;18.07;39.49;100142.59;10385554;27;97034;-80
2022/05/01 17:54:37;;;;;;;0.15;0.15;;;19.60;51.70;;;17.62;39.86;100145.31;10373922;27;96775;-80
2022/05/01 17:59:41;;;;;;;0.00;0.00;;;19.20;51.70;;;17.28;40.64;100151.91;10386857;27;98798;-80
2022/05/01 18:10:52;;;;;;;0.10;0.10;;;18.50;52.40;;;16.74;42.02;100159.28;10384446;27;98691;-80
2022/05/01 18:16:26;;;;;;;0.00;0.00;;;18.30;53.90;;;16.55;42.20;100157.38;10380063;27;97491;-80
2022/05/01 18:22:00;;;;;;;0.00;0.00;;;18.00;53.80;;;16.26;44.07;100167.53;10387935;27;98577;-79
2022/05/01 18:27:09;;;;;;;0.00;0.00;;;17.80;54.30;;;16.01;45.13;100182.53;10379670;27;97571;-78
2022/05/01 18:33:01;;;;;;;0.30;0.30;;;17.50;57.40;;;15.73;46.03;100186.19;10388541;27;97418;-79
2022/05/01 18:38:24;;;;;;;0.00;0.00;;;17.20;57.60;;;15.43;47.01;100199.03;10391382;27;98077;-78
2022/05/01 18:43:38;;;;;;;0.00;0.00;;;16.90;57.80;;;15.19;47.92;100199.53;10405770;27;96768;-78
2022/05/01 18:48:41;;;;;;;0.00;0.00;;;16.70;59.60;;;15.02;47.30;100201.69;10406362;27;96742;-78
2022/05/01 18:53:44;;;;;;;0.00;0.00;;;16.40;57.80;;;14.86;48.13;100196.63;10409898;27;98691;-79
2022/05/01 18:58:48;;;;;;;0.00;0.00;;;16.30;59.00;;;14.72;48.49;100201.91;10383817;27;97241;-79
2022/05/01 19:03:51;;;;;;;0.00;0.00;;;16.10;59.90;;;14.57;48.39;100208.34;10381380;27;98472;-80
2022/05/01 19:09:10;;;;;;;0.05;0.05;;;16.00;59.00;;;14.42;49.52;100217.25;10420939;27;96644;-79
2022/05/01 19:14:38;;;;;;;0.00;0.00;;;15.80;60.90;;;14.25;50.20;100220.38;10417337;27;96600;-79
2022/05/01 19:20:21;;;;;;;0.00;0.00;;;15.70;60.10;;;14.11;50.89;100224.78;10387432;27;97289;-79
2022/05/01 19:31:34;;;;;;;0.00;0.00;;;15.40;62.10;;;13.75;51.95;100230.13;10398028;27;96653;-79
2022/05/01 19:36:52;;;;;;;0.13;0.13;;;15.20;62.70;;;13.59;52.45;100232.00;10409934;27;98155;-79
2022/05/01 19:42:35;;;;;;;0.00;0.00;;;15.10;64.30;;;13.43;53.41;100237.53;10405911;27;96598;-79
2022/05/01 19:53:08;;;;;;;0.00;0.00;;;14.80;65.70;;;13.26;52.46;100231.56;10422343;27;96734;-79
2022/05/01 19:58:17;;;;;;;0.00;0.00;;;14.70;62.80;;;13.29;51.83;100222.38;10393751;27;98205;-79
2022/05/01 20:03:23;;;;;;;0.00;0.00;;;14.70;63.30;;;13.29;52.54;100225.84;10403516;27;96684;-79
2022/05/01 20:08:26;;;;;;;0.10;0.10;;;14.70;63.20;;;13.28;52.49;100228.72;10383004;27;97060;-79
2022/05/01 20:13:29;;;;;;;0.00;0.00;;;14.70;62.60;;;13.22;52.58;100224.13;10420731;27;96647;-79
2022/05/01 20:19:10;;;;;;;0.00;0.00;;;14.60;63.80;;;13.17;52.88;100223.81;10389520;27;97478;-79
2022/05/01 20:24:45;;;;;;;0.00;0.00;;;14.50;62.60;;;13.08;53.77;100231.91;10393561;27;96954;-79
2022/05/01 20:30:15;;;;;;;0.00;0.00;;;14.50;65.40;;;12.93;54.70;100231.06;10356667;27;97501;-79
2022/05/01 20:35:21;;;;;;;0.00;0.00;;;14.40;65.60;;;12.82;54.46;100235.00;10401763;27;97029;-79
2022/05/01 20:40:28;;;;;;;0.00;0.00;;;14.30;66.10;;;12.71;55.03;100234.59;10440827;27;96573;-79
2022/05/01 20:45:58;;;;;;;0.00;0.00;;;14.10;66.40;;;12.62;55.05;100233.03;10391314;27;98388;-79
2022/05/01 20:51:04;;;;;;;0.00;0.00;;;14.10;66.40;;;12.53;54.96;100235.78;10389818;27;97939;-79
2022/05/01 20:56:09;;;;;;;0.00;0.00;;;14.00;66.80;;;12.48;54.75;100235.47;10381960;27;97104;-79
2022/05/01 21:01:14;;;;;;;0.00;0.00;;;13.90;66.10;;;12.48;54.44;100227.50;10405336;27;98371;-79
2022/05/01 21:06:18;;;;;;;0.00;0.00;;;13.90;65.60;;;12.47;54.83;100230.31;10409088;27;96614;-80
2022/05/01 21:11:22;;;;;;;0.00;0.00;;;13.80;66.10;;;12.42;55.13;100228.22;10412173;27;96676;-80
2022/05/01 21:16:25;;;;;;;0.00;0.00;;;13.80;67.40;;;12.36;54.87;100234.25;10421547;27;97381;-79
2022/05/01 21:21:28;;;;;;;0.00;0.00;;;13.80;66.00;;;12.32;55.72;100236.44;10405404;27;98556;-80
2022/05/01 21:26:32;;;;;;;0.00;0.00;;;13.80;66.30;;;12.26;56.69;100234.47;10412192;27;98877;-79
2022/05/01 21:36:56;;;;;;;0.00;0.00;;;13.60;69.10;;;12.04;57.13;100230.78;10412982;28;96872;-79
2022/05/01 21:41:59;;;;;;;0.00;0.00;;;13.50;70.00;;;11.90;57.81;100228.88;10407131;27;96539;-79
2022/05/01 21:47:02;;;;;;;0.00;0.00;;;13.40;69.30;;;11.82;58.57;100231.63;10409932;27;97178;-79
2022/05/01 21:52:08;;;;;;;0.10;0.00;;;13.30;71.40;;;11.70;58.67;100230.31;10412054;27;96713;-79
2022/05/01 21:57:12;;;;;;;0.00;0.00;;;13.10;70.80;;;11.60;59.39;100230.53;10412549;27;97696;-79
2022/05/01 22:02:16;;;;;;;0.00;0.00;;;13.10;72.30;;;11.54;59.64;100233.88;10399965;27;98591;-79
2022/05/01 22:07:19;;;;;;;0.00;0.00;;;13.00;71.20;;;11.44;60.34;100226.09;10435515;27;98499;-79
2022/05/01 22:12:22;;;;;;;0.20;0.10;;;12.90;73.60;;;11.36;60.80;100219.97;10423993;27;96913;-79
2022/05/01 22:17:25;;;;;;;0.00;0.00;;;12.80;74.00;;;11.29;60.58;100219.84;10400865;27;98315;-79